11°C
Porth, Newquay, Cornwall. UK  Tell A Friend
 Ad **Ad
Updated17/12/2017 13:45 
 


More METAR Reports From


Metar Station     Metar Station     Metar Station     Metar Station     Metar Station
EGBB Birmingham     EGBE Coventry     EGLL London Heathrow     EGKK London Gatwick     EGGP Liverpool
EGGW Luton     EGNX East Midlands     EGLC London City     EGCC Mancester Intl     EGSS Stanstead
Local Metars Here                                
EGBB - Birmingham Airpo, United Kingdom
Updated: 17/12/2017 13:20
Light rain, Mostly cloudy
Light rain, Mostly cloudy
 Wind from SSW
Wind: SSW 8 mph , 13 km/h, 7 kts
Temperature: 6°C
Wind Chill: 3°C
Dew Point: 6°C
Humidity: 100%
Barometer: 1018 hPa
Summary: Light Rain
Clouds: Mostly Cloudy
Visibility: 4 miles , 6 km
Cloud details: Mostly Cloudy 152 m
2017/12/17 13:20 EGBB 171320Z 20007KT 170V240 6000 -RA BKN005 06/06 Q1018
EGBE - Coventry Airport, United Kingdom
Updated: 18/07/2017 14:50

NOT Current
Clear
Clear
 Wind from E
Wind: E 16 mph , 26 km/h, 14 kts
Temperature: 27°C
Heat Index: 27°C
Dew Point: 14°C
Humidity: 45%
Barometer: 1015 hPa
Summary: Clear
Visibility: greater than 7 miles , 10 km
2017/07/18 13:50 EGBE 181350Z 10014KT 060V120 CAVOK 27/14 Q1015
 
EGLL - London/Heathrow, United Kingdom
Updated: 17/12/2017 13:20
Light rain, Overcast
Light rain, Overcast
 Wind from SSW
Wind: SSW 10 mph , 17 km/h, 9 kts
Temperature: 4°C
Wind Chill: 0°C
Dew Point: 3°C
Humidity: 93%
Barometer: 1022 hPa
Summary: Light Rain
Clouds: Overcast
Visibility: 4 miles , 7 km
Cloud details: Partly Cloudy 671 m
Mostly Cloudy 914 m
Overcast 1128 m
2017/12/17 13:20 EGLL 171320Z AUTO 20009KT 7000 -RA SCT022 BKN030 OVC037 04/03 Q1022 TEMPO 4000 RA BKN012
EGKK - London/Gatwick A, United Kingdom
Updated: 17/12/2017 13:20
Light rain, Drizzle, Mostly cloudy
Light rain, Drizzle, Mostly cloudy
 Wind from SW
Wind: SW 6 mph , 9 km/h, 5 kts
Temperature: 6°C
Wind Chill: 4°C
Dew Point: 4°C
Humidity: 87%
Barometer: 1023 hPa
Summary: Light rain, Drizzle
Clouds: Mostly Cloudy
Visibility: 6 miles , 9 km
Cloud details: Few Clouds 427 m
Mostly Cloudy 671 m
2017/12/17 13:20 EGKK 171320Z 22005KT 180V250 9000 -RADZ FEW014 BKN022 06/04 Q1023
 
EGGP - Liverpool Airpor, United Kingdom
Updated: 17/12/2017 13:20
Drizzle Rain
Drizzle Rain
 Wind from SW
Wind: SW 7 mph , 11 km/h, 6 kts
Temperature: 8°C
Wind Chill: 6°C
Dew Point: 8°C
Humidity: 100%
Barometer: 1016 hPa
Summary: Drizzle Rain
Visibility: 1 mile , 1 km
2017/12/17 13:20 EGGP 171320Z 22006KT 1200 R27/0900 DZRA VV/// 08/08 Q1016
EGGW - Luton Airport, United Kingdom
Updated: 17/12/2017 13:20
Light rain, Drizzle, Overcast
Light rain, Drizzle, Overcast
 Wind from SSW
Wind: SSW 12 mph , 19 km/h, 10 kts
Temperature: 4°C
Wind Chill: 0°C
Dew Point: 4°C
Humidity: 100%
Barometer: 1021 hPa
Summary: Light rain, Drizzle
Clouds: Overcast
Visibility: 3 miles , 5 km
Cloud details: Overcast 91 m
2017/12/17 13:20 EGGW 171320Z AUTO 20010KT 5000 -RADZ OVC003 04/04 Q1021
 
EGNX - East Midlands, United Kingdom
Updated: 17/12/2017 13:20
Mostly Cloudy
Mostly Cloudy
 Wind from SSW
Wind: SSW 17 mph , 28 km/h, 15 kts
Temperature: 6°C
Wind Chill: 2°C
Dew Point: 6°C
Humidity: 100%
Barometer: 1017 hPa
Clouds: Mostly Cloudy
Visibility: 6 miles , 9 km
Cloud details: Mostly Cloudy 183 m
2017/12/17 13:20 EGNX 171320Z 20015KT 9000 BKN006 06/06 Q1017
EGLC - London City Airp, United Kingdom
Updated: 17/12/2017 13:20
Light rain, Mostly cloudy
Light rain, Mostly cloudy
 Wind from SW
Wind: SW 6 mph , 9 km/h, 5 kts
Temperature: 6°C
Wind Chill: 4°C
Dew Point: 4°C
Humidity: 87%
Barometer: 1023 hPa
Summary: Light Rain
Clouds: Mostly Cloudy
Visibility: 6 miles , 9 km
Cloud details: Partly Cloudy 457 m
Mostly Cloudy 671 m
2017/12/17 13:20 EGLC 171320Z AUTO 22005KT 140V250 9000 -RA SCT015 BKN022 06/04 Q1023
 
EGCC - Manchester Intl, United Kingdom
Updated: 17/12/2017 13:20
Drizzle rain, Mostly cloudy
Drizzle rain, Mostly cloudy
 Wind from S
Wind: S 8 mph , 13 km/h, 7 kts
Temperature: 7°C
Wind Chill: 5°C
Dew Point: 6°C
Humidity: 93%
Barometer: 1016 hPa
Summary: Drizzle Rain
Clouds: Mostly Cloudy
Visibility: 2 miles , 3 km
Cloud details: Few Clouds 0 m
Mostly Cloudy 122 m
2017/12/17 13:20 EGCC 171320Z 18007KT 150V210 3000 DZRA FEW000 BKN004 07/06 Q1016 RERA TEMPO 6000 -RADZ
EGSS - Stansted Airport, United Kingdom
Updated: 17/12/2017 13:20
Light rain, Overcast
Light rain, Overcast
 Wind from SSW
Wind: SSW 12 mph , 19 km/h, 10 kts
Temperature: 3°C
Wind Chill: -2°C
Dew Point: 3°C
Humidity: 100%
Barometer: 1022 hPa
Summary: Light Rain
Clouds: Overcast
Visibility: 2 miles , 4 km
Cloud details: Mostly Cloudy 366 m
Mostly Cloudy 671 m
Overcast 1433 m
2017/12/17 13:20 EGSS 171320Z AUTO 21010KT 4000 -RA BKN012 BKN022 OVC047 03/03 Q1022

Metar, brief description

METAR is a format for reporting weather information. A METAR weather report is predominantly used by pilots in fulfillment of a part of a pre-flight weather briefing, and by meteorologists, who use aggregated METAR information to assist in weather forecasting.

Raw METAR is the most popular format in the world for the transmission of weather data. Each METAR report contains essential information about the current weather conditions: Temperature, Dew Point, Barometric Pressure, Wind Speed and Direction, Visibility, Clouds Cover, Current Weather (Rain, Thunderstorms, Hail, Snow and so on...), here is an example of a raw metar report for EGHQ (Newquay airport).
METAR not available